createdAt,value
2022-10-30T00:01:27.986Z,99390.44
2022-10-30T00:03:56.872Z,99380.53
2022-10-30T00:06:25.581Z,99371.06
2022-10-30T00:08:54.210Z,99367.91
2022-10-30T00:11:24.325Z,99372.16
2022-10-30T00:13:52.980Z,99365.16
2022-10-30T00:16:21.643Z,99360.72
2022-10-30T00:18:50.359Z,99354.69
2022-10-30T00:21:20.496Z,99354.53
2022-10-30T00:23:51.358Z,99356.00
2022-10-30T00:26:25.128Z,99354.34
2022-10-30T00:28:55.823Z,99348.16
2022-10-30T00:31:25.495Z,99343.25
2022-10-30T00:33:56.144Z,99347.41
2022-10-30T00:36:26.236Z,99340.28
2022-10-30T00:38:54.852Z,99349.38
2022-10-30T00:41:26.749Z,99346.63
2022-10-30T00:43:57.260Z,99349.06
2022-10-30T00:46:32.785Z,99348.94
2022-10-30T00:49:07.224Z,99340.63
2022-10-30T00:51:40.608Z,99343.06
2022-10-30T00:54:11.117Z,99344.88
2022-10-30T00:56:41.484Z,99344.50
2022-10-30T00:59:15.084Z,99344.91
2022-10-30T01:01:47.296Z,99341.81
2022-10-30T01:04:18.532Z,99334.09
2022-10-30T01:06:52.153Z,99327.91
2022-10-30T01:09:21.664Z,99326.91
2022-10-30T01:11:51.721Z,99319.19
2022-10-30T01:14:23.249Z,99324.72
2022-10-30T01:17:18.192Z,99323.09
2022-10-30T01:22:58.073Z,99313.75
2022-10-30T01:25:49.801Z,99318.38
2022-10-30T01:28:46.134Z,99309.28
2022-10-30T01:31:36.894Z,99299.81
2022-10-30T01:34:20.039Z,99294.38
2022-10-30T01:37:00.943Z,99294.53
2022-10-30T01:39:35.300Z,99303.28
2022-10-30T01:42:11.875Z,99302.97
2022-10-30T01:44:42.574Z,99293.75
2022-10-30T01:47:37.910Z,99286.16
2022-10-30T01:50:29.834Z,99288.47
2022-10-30T01:53:10.618Z,99299.31
2022-10-30T01:55:55.919Z,99298.41
2022-10-30T01:58:36.040Z,99298.78
2022-10-30T02:01:07.358Z,99296.56
2022-10-30T02:03:36.142Z,99306.13
2022-10-30T02:06:05.303Z,99303.78
2022-10-30T02:08:33.971Z,99296.56
2022-10-30T02:11:03.333Z,99293.88
2022-10-30T02:13:39.498Z,99290.72
2022-10-30T02:16:12.102Z,99290.72
2022-10-30T02:21:14.432Z,99287.13
2022-10-30T02:23:45.409Z,99285.59
2022-10-30T02:26:14.930Z,99284.22
2022-10-30T02:28:43.986Z,99293.78
2022-10-30T02:31:12.673Z,99292.38
2022-10-30T02:33:47.345Z,99286.31
2022-10-30T02:36:17.530Z,99283.63
2022-10-30T02:38:46.466Z,99285.84
2022-10-30T02:41:15.230Z,99285.84
2022-10-30T02:43:44.667Z,99280.47
2022-10-30T02:46:13.321Z,99278.81
2022-10-30T02:48:42.052Z,99273.47
2022-10-30T02:51:10.828Z,99268.69
2022-10-30T02:53:42.459Z,99270.34
2022-10-30T02:56:14.723Z,99283.28
2022-10-30T02:58:44.514Z,99284.09
2022-10-30T03:01:16.862Z,99274.84
2022-10-30T03:03:46.941Z,99270.19
2022-10-30T03:06:18.288Z,99271.34
2022-10-30T03:08:48.406Z,99280.34
2022-10-30T03:11:20.563Z,99277.41
2022-10-30T03:13:50.093Z,99276.03
2022-10-30T03:16:21.524Z,99280.34
2022-10-30T03:18:50.794Z,99278.31
2022-10-30T03:21:22.516Z,99279.03
2022-10-30T03:23:56.451Z,99282.75
2022-10-30T03:26:25.888Z,99280.66
2022-10-30T03:29:04.818Z,99282.63
2022-10-30T03:31:34.958Z,99281.34
2022-10-30T03:34:15.558Z,99276.28
2022-10-30T03:36:44.298Z,99283.06
2022-10-30T03:39:15.093Z,99287.38
2022-10-30T03:41:45.785Z,99279.91
2022-10-30T03:44:14.710Z,99281.44
2022-10-30T03:46:43.422Z,99276.28
2022-10-30T03:49:25.744Z,99284.03
2022-10-30T03:51:55.991Z,99280.28
2022-10-30T03:54:28.301Z,99278.53
2022-10-30T03:56:57.011Z,99279.09
2022-10-30T03:59:29.272Z,99268.59
2022-10-30T04:02:24.007Z,99277.13
2022-10-30T04:04:52.714Z,99283.78
2022-10-30T04:07:21.338Z,99271.06
2022-10-30T04:09:51.408Z,99273.75
2022-10-30T04:12:20.119Z,99276.91
2022-10-30T04:14:48.829Z,99267.34
2022-10-30T04:17:17.465Z,99273.03
2022-10-30T04:19:46.119Z,99261.84
2022-10-30T04:22:15.461Z,99256.13
2022-10-30T04:24:44.851Z,99263.59
2022-10-30T04:27:15.594Z,99264.06
2022-10-30T04:29:44.268Z,99262.44
2022-10-30T04:32:12.982Z,99256.97
2022-10-30T04:34:41.864Z,99258.13
2022-10-30T04:37:10.955Z,99253.81
2022-10-30T04:39:43.749Z,99251.69
2022-10-30T04:42:20.820Z,99246.31
2022-10-30T04:44:49.432Z,99244.13
2022-10-30T04:47:18.161Z,99244.84
2022-10-30T04:49:47.365Z,99234.81
2022-10-30T04:52:18.722Z,99241.94
2022-10-30T04:54:48.518Z,99245.56
2022-10-30T04:57:17.935Z,99250.13
2022-10-30T04:59:48.104Z,99246.88
2022-10-30T05:02:19.482Z,99246.38
2022-10-30T05:04:49.366Z,99244.75
2022-10-30T05:07:19.991Z,99236.47
2022-10-30T05:09:50.018Z,99244.63
2022-10-30T05:12:19.601Z,99245.44
2022-10-30T05:15:15.120Z,99240.56
2022-10-30T05:17:44.111Z,99244.53
2022-10-30T05:20:16.257Z,99242.44
2022-10-30T05:23:20.810Z,99246.53
2022-10-30T05:25:51.716Z,99249.44
2022-10-30T05:28:23.848Z,99244.53
2022-10-30T05:31:00.254Z,99245.13
2022-10-30T05:33:51.733Z,99247.22
2022-10-30T05:36:20.816Z,99254.31
2022-10-30T05:38:50.032Z,99254.94
2022-10-30T05:41:47.251Z,99248.81
2022-10-30T05:44:40.457Z,99245.94
2022-10-30T05:47:13.300Z,99249.56
2022-10-30T05:50:14.785Z,99246.53
2022-10-30T05:52:58.102Z,99246.28
2022-10-30T05:55:27.540Z,99251.63
2022-10-30T05:58:11.302Z,99240.09
2022-10-30T06:00:44.530Z,99243.25
2022-10-30T06:03:20.189Z,99243.13
2022-10-30T06:05:52.040Z,99243.38
2022-10-30T06:08:21.338Z,99241.97
2022-10-30T06:10:56.949Z,99247.94
2022-10-30T06:13:31.460Z,99249.31
2022-10-30T06:16:06.489Z,99247.19
2022-10-30T06:18:55.588Z,99246.13
2022-10-30T06:21:25.728Z,99248.38
2022-10-30T06:24:20.748Z,99251.75
2022-10-30T06:27:20.327Z,99249.06
2022-10-30T06:29:50.178Z,99255.50
2022-10-30T06:32:23.760Z,99252.91
2022-10-30T06:34:59.243Z,99251.63
2022-10-30T06:37:28.473Z,99259.22
2022-10-30T06:39:59.771Z,99260.16
2022-10-30T06:42:51.193Z,99264.47
2022-10-30T06:45:43.034Z,99269.03
2022-10-30T06:48:12.064Z,99270.75
2022-10-30T06:50:46.158Z,99270.88
2022-10-30T06:53:14.964Z,99276.91
2022-10-30T06:55:44.261Z,99280.06
2022-10-30T06:58:43.943Z,99278.69
2022-10-30T07:01:23.230Z,99279.03
2022-10-30T07:04:03.042Z,99268.16
2022-10-30T07:06:33.195Z,99279.81
2022-10-30T07:09:02.613Z,99276.53
2022-10-30T07:11:31.821Z,99275.47
2022-10-30T07:14:20.801Z,99273.03
2022-10-30T07:16:57.235Z,99277.69
2022-10-30T07:19:28.588Z,99280.84
2022-10-30T07:22:08.073Z,99282.97
2022-10-30T07:24:42.764Z,99288.69
2022-10-30T07:27:44.839Z,99292.88
2022-10-30T07:30:33.817Z,99293.28
2022-10-30T07:33:23.297Z,99287.22
2022-10-30T07:36:03.200Z,99288.47
2022-10-30T07:39:09.772Z,99287.00
2022-10-30T07:41:49.778Z,99292.59
2022-10-30T07:44:39.541Z,99289.03
2022-10-30T07:47:34.565Z,99301.00
2022-10-30T07:50:14.407Z,99289.28
2022-10-30T07:52:43.248Z,99291.50
2022-10-30T07:55:17.299Z,99290.19
2022-10-30T07:57:46.324Z,99285.63
2022-10-30T08:00:38.412Z,99286.78
2022-10-30T08:03:17.575Z,99296.22
2022-10-30T08:05:58.402Z,99288.22
2022-10-30T08:08:39.070Z,99286.47
2022-10-30T08:11:26.787Z,99280.13
2022-10-30T08:13:56.448Z,99281.25
2022-10-30T08:16:25.676Z,99286.13
2022-10-30T08:18:55.491Z,99279.31
2022-10-30T08:21:29.353Z,99282.63
2022-10-30T08:24:01.719Z,99284.06
2022-10-30T08:26:49.375Z,99273.66
2022-10-30T08:29:23.296Z,99281.22
2022-10-30T08:31:55.999Z,99279.91
2022-10-30T08:34:47.585Z,99281.38
2022-10-30T08:37:35.377Z,99276.34
2022-10-30T08:40:09.799Z,99269.78
2022-10-30T08:42:55.224Z,99270.00
2022-10-30T08:45:31.258Z,99275.00
2022-10-30T08:48:17.136Z,99271.50
2022-10-30T08:50:51.314Z,99267.94
2022-10-30T08:53:36.871Z,99269.19
2022-10-30T08:56:20.257Z,99264.03
2022-10-30T08:59:23.785Z,99258.28
2022-10-30T09:01:58.096Z,99256.75
2022-10-30T09:04:50.633Z,99254.03
2022-10-30T09:07:46.376Z,99258.69
2022-10-30T09:10:39.155Z,99260.69
2022-10-30T09:13:11.960Z,99250.53
2022-10-30T09:15:52.694Z,99253.84
2022-10-30T09:19:39.029Z,99257.72
2022-10-30T09:27:53.451Z,99258.06
2022-10-30T09:30:28.811Z,99254.53
2022-10-30T09:33:14.871Z,99261.50
2022-10-30T09:36:44.434Z,99260.41
2022-10-30T09:39:24.092Z,99257.69
2022-10-30T09:42:44.323Z,99268.16
2022-10-30T09:45:51.501Z,99274.91
2022-10-30T09:49:02.881Z,99277.56
2022-10-30T09:52:05.174Z,99275.44
2022-10-30T09:54:54.089Z,99281.41
2022-10-30T09:57:45.791Z,99273.84
2022-10-30T10:01:46.969Z,99270.59
2022-10-30T10:05:17.905Z,99274.34
2022-10-30T10:09:43.278Z,99260.31
2022-10-30T10:13:43.707Z,99267.84
2022-10-30T10:21:00.000Z,99254.38
2022-10-30T10:23:49.572Z,99266.31
2022-10-30T10:26:48.131Z,99256.56
2022-10-30T10:29:43.351Z,99257.97
2022-10-30T10:33:15.492Z,99260.16
2022-10-30T10:36:32.566Z,99262.88
2022-10-30T10:39:40.850Z,99266.91
2022-10-30T10:42:29.553Z,99253.41
2022-10-30T10:45:32.846Z,99261.00
2022-10-30T10:52:27.935Z,99258.56
2022-10-30T10:55:06.354Z,99252.88
2022-10-30T10:57:43.779Z,99257.22
2022-10-30T11:00:21.591Z,99251.28
2022-10-30T11:03:05.394Z,99255.38
2022-10-30T11:06:29.698Z,99254.03
2022-10-30T11:09:32.241Z,99265.41
2022-10-30T11:12:15.283Z,99255.94
2022-10-30T11:14:48.855Z,99241.63
2022-10-30T11:17:54.645Z,99256.78
2022-10-30T11:21:06.901Z,99248.66
2022-10-30T11:23:48.965Z,99240.50
2022-10-30T11:26:57.186Z,99242.16
2022-10-30T11:29:37.389Z,99241.88
2022-10-30T11:32:19.603Z,99242.69
2022-10-30T11:40:32.982Z,99231.31
2022-10-30T11:43:06.412Z,99225.88
2022-10-30T11:45:40.932Z,99240.47
2022-10-30T11:48:23.236Z,99225.59
2022-10-30T11:50:56.432Z,99233.97
2022-10-30T11:58:25.223Z,99233.97
2022-10-30T12:05:44.897Z,99226.41
2022-10-30T12:09:41.752Z,99230.19
2022-10-30T12:12:16.666Z,99223.19
2022-10-30T12:15:11.404Z,99218.81
2022-10-30T12:18:21.405Z,99218.00
2022-10-30T12:20:59.073Z,99215.06
2022-10-30T12:28:22.988Z,99214.50
2022-10-30T12:31:00.095Z,99210.69
2022-10-30T12:33:36.567Z,99214.75
2022-10-30T12:36:12.395Z,99207.16
2022-10-30T12:38:51.745Z,99213.69
2022-10-30T12:41:26.498Z,99206.34
2022-10-30T12:44:06.051Z,99208.78
2022-10-30T12:46:47.246Z,99205.53
2022-10-30T12:49:30.628Z,99211.50
2022-10-30T12:52:20.662Z,99212.03
2022-10-30T12:54:56.275Z,99210.16
2022-10-30T12:57:30.624Z,99205.25
2022-10-30T13:00:06.256Z,99205.53
2022-10-30T13:02:47.743Z,99207.97
2022-10-30T13:06:54.389Z,99195.75
2022-10-30T13:09:34.092Z,99203.38
2022-10-30T13:12:10.796Z,99193.91
2022-10-30T13:15:38.651Z,99196.06
2022-10-30T13:18:18.896Z,99190.13
2022-10-30T13:21:13.668Z,99186.88
2022-10-30T13:23:53.255Z,99192.56
2022-10-30T13:26:35.276Z,99188.50
2022-10-30T13:29:18.167Z,99188.78
2022-10-30T13:32:13.975Z,99177.69
2022-10-30T13:34:58.098Z,99186.38
2022-10-30T13:37:38.115Z,99186.38
2022-10-30T13:40:27.387Z,99189.31
2022-10-30T13:43:15.705Z,99177.97
2022-10-30T13:46:24.735Z,99178.25
2022-10-30T13:49:26.530Z,99184.19
2022-10-30T13:52:23.498Z,99179.88
2022-10-30T14:00:00.123Z,99187.19
2022-10-30T14:02:49.616Z,99189.09
2022-10-30T14:05:39.116Z,99190.47
2022-10-30T14:08:22.239Z,99180.97
2022-10-30T14:15:45.511Z,99186.41
2022-10-30T14:22:33.013Z,99192.63
2022-10-30T14:25:14.780Z,99193.97
2022-10-30T14:27:43.911Z,99198.56
2022-10-30T14:30:22.252Z,99199.94
2022-10-30T14:32:53.338Z,99195.88
2022-10-30T14:36:46.799Z,99205.34
2022-10-30T14:39:31.857Z,99202.38
2022-10-30T14:42:22.243Z,99202.91
2022-10-30T14:45:17.075Z,99198.03
2022-10-30T14:48:00.948Z,99199.41
2022-10-30T14:51:45.600Z,99200.75
2022-10-30T14:54:26.276Z,99204.28
2022-10-30T14:56:55.652Z,99208.06
2022-10-30T14:59:35.143Z,99207.78
2022-10-30T15:07:25.870Z,99205.81
2022-10-30T15:10:32.798Z,99202.06
2022-10-30T15:13:16.514Z,99201.25
2022-10-30T15:18:55.940Z,99196.06
2022-10-30T15:21:29.668Z,99208.50
2022-10-30T15:24:02.523Z,99210.94
2022-10-30T15:26:37.845Z,99208.22
2022-10-30T15:29:13.664Z,99207.91
2022-10-30T15:31:42.709Z,99217.66
2022-10-30T15:34:24.133Z,99212.22
2022-10-30T15:36:53.186Z,99209.78
2022-10-30T15:39:21.914Z,99214.88
2022-10-30T15:42:01.147Z,99217.56
2022-10-30T15:44:34.565Z,99221.06
2022-10-30T15:47:13.771Z,99218.88
2022-10-30T15:49:51.585Z,99221.31
2022-10-30T15:52:24.736Z,99218.00
2022-10-30T15:55:00.898Z,99224.44
2022-10-30T15:58:02.996Z,99218.47
2022-10-30T16:00:27.193Z,99220.03
2022-10-30T16:03:08.877Z,99231.34
2022-10-30T16:05:40.106Z,99230.22
2022-10-30T16:08:16.887Z,99235.59
2022-10-30T16:10:47.636Z,99224.78
2022-10-30T16:13:23.373Z,99232.28
2022-10-30T16:15:53.502Z,99231.72
2022-10-30T16:18:27.507Z,99233.81
2022-10-30T16:21:03.778Z,99236.44
2022-10-30T16:23:39.946Z,99233.19
2022-10-30T16:26:33.988Z,99235.34
2022-10-30T16:29:22.118Z,99235.81
2022-10-30T16:31:56.253Z,99236.81
2022-10-30T16:34:32.225Z,99235.16
2022-10-30T16:37:05.504Z,99240.53
2022-10-30T16:39:36.224Z,99232.63
2022-10-30T16:42:05.698Z,99241.78
2022-10-30T16:44:37.162Z,99235.53
2022-10-30T16:47:23.276Z,99244.13
2022-10-30T16:49:58.814Z,99235.50
2022-10-30T16:52:35.711Z,99237.63
2022-10-30T16:55:11.108Z,99237.06
2022-10-30T16:57:47.096Z,99240.78
2022-10-30T17:00:25.956Z,99243.97
2022-10-30T17:03:00.453Z,99243.34
2022-10-30T17:05:32.780Z,99245.97
2022-10-30T17:08:09.831Z,99246.59
2022-10-30T17:10:57.465Z,99247.56
2022-10-30T17:14:04.739Z,99245.63
2022-10-30T17:16:44.183Z,99245.81
2022-10-30T17:19:48.396Z,99245.50
2022-10-30T17:22:22.110Z,99251.41
2022-10-30T17:24:54.096Z,99248.31
2022-10-30T17:27:51.510Z,99251.59
2022-10-30T17:30:38.013Z,99248.38
2022-10-30T17:33:28.049Z,99257.59
2022-10-30T17:36:00.366Z,99248.13
2022-10-30T17:38:29.912Z,99259.06
2022-10-30T17:41:01.686Z,99252.59
2022-10-30T17:43:36.317Z,99255.84
2022-10-30T17:46:06.739Z,99256.22
2022-10-30T17:48:44.051Z,99260.72
2022-10-30T17:51:19.351Z,99258.47
2022-10-30T17:54:26.342Z,99262.78
2022-10-30T17:56:58.641Z,99260.91
2022-10-30T17:59:27.233Z,99261.72
2022-10-30T18:01:55.945Z,99258.38
2022-10-30T18:04:24.823Z,99264.59
2022-10-30T18:06:56.197Z,99262.44
2022-10-30T18:09:30.411Z,99260.66
2022-10-30T18:12:00.614Z,99266.63
2022-10-30T18:14:29.723Z,99267.03
2022-10-30T18:16:58.634Z,99261.84
2022-10-30T18:19:27.409Z,99268.53
2022-10-30T18:21:56.531Z,99267.22
2022-10-30T18:24:25.701Z,99269.75
2022-10-30T18:26:55.060Z,99266.84
2022-10-30T18:29:26.257Z,99269.44
2022-10-30T18:31:57.316Z,99267.81
2022-10-30T18:34:27.382Z,99269.44
2022-10-30T18:36:58.381Z,99272.13
2022-10-30T18:39:27.465Z,99274.47
2022-10-30T18:41:56.576Z,99279.47
2022-10-30T18:44:27.035Z,99271.28
2022-10-30T18:47:02.486Z,99275.84
2022-10-30T18:49:33.492Z,99267.91
2022-10-30T18:52:03.562Z,99271.97
2022-10-30T18:54:33.275Z,99266.59
2022-10-30T18:57:02.015Z,99266.84
2022-10-30T18:59:32.124Z,99259.16
2022-10-30T19:02:02.230Z,99274.38
2022-10-30T19:04:31.145Z,99266.78
2022-10-30T19:07:00.477Z,99269.81
2022-10-30T19:09:29.247Z,99257.75
2022-10-30T19:11:58.002Z,99266.41
2022-10-30T19:14:28.159Z,99259.88
2022-10-30T19:16:58.420Z,99266.22
2022-10-30T19:19:27.076Z,99263.94
2022-10-30T19:21:55.839Z,99271.69
2022-10-30T19:24:24.534Z,99261.41
2022-10-30T19:26:53.525Z,99270.78
2022-10-30T19:29:22.258Z,99263.78
2022-10-30T19:31:50.866Z,99268.50
2022-10-30T19:34:21.153Z,99272.72
2022-10-30T19:41:55.662Z,99277.44
2022-10-30T19:44:23.919Z,99271.47
2022-10-30T19:46:54.603Z,99273.34
2022-10-30T19:49:23.873Z,99266.34
2022-10-30T19:51:52.778Z,99277.69
2022-10-30T19:54:23.761Z,99280.16
2022-10-30T19:56:53.158Z,99282.19
2022-10-30T20:04:20.414Z,99278.34
2022-10-30T20:06:49.197Z,99275.53
2022-10-30T20:09:17.833Z,99284.31
2022-10-30T20:11:47.185Z,99273.66
2022-10-30T20:14:15.735Z,99281.41
2022-10-30T20:16:43.898Z,99283.28
2022-10-30T20:19:42.929Z,99280.59
2022-10-30T20:24:49.488Z,99289.69
2022-10-30T20:27:17.037Z,99290.28
2022-10-30T20:29:44.410Z,99289.69
2022-10-30T20:32:12.232Z,99285.97
2022-10-30T20:34:39.751Z,99287.50
2022-10-30T20:37:09.823Z,99283.66
2022-10-30T20:39:38.885Z,99291.50
2022-10-30T20:42:12.649Z,99289.84
2022-10-30T20:44:41.713Z,99296.28
2022-10-30T20:47:10.672Z,99284.28
2022-10-30T20:49:39.480Z,99295.72
2022-10-30T20:52:08.197Z,99292.09
2022-10-30T20:54:36.865Z,99293.97
2022-10-30T20:57:05.702Z,99300.03
2022-10-30T20:59:36.028Z,99297.22
2022-10-30T21:02:05.151Z,99298.78
2022-10-30T21:04:34.016Z,99301.47
2022-10-30T21:07:02.747Z,99302.03
2022-10-30T21:09:31.516Z,99305.88
2022-10-30T21:12:00.225Z,99306.84
2022-10-30T21:14:28.826Z,99306.84
2022-10-30T21:16:58.890Z,99307.97
2022-10-30T21:19:27.579Z,99312.88
2022-10-30T21:21:56.154Z,99316.50
2022-10-30T21:24:24.820Z,99318.53
2022-10-30T21:26:53.402Z,99326.66
2022-10-30T21:29:23.258Z,99331.56
2022-10-30T21:31:52.202Z,99318.53
2022-10-30T21:34:22.181Z,99322.22
2022-10-30T21:36:50.786Z,99317.91
2022-10-30T21:39:19.471Z,99323.28
2022-10-30T21:41:48.366Z,99322.16
2022-10-30T21:44:17.135Z,99327.28
2022-10-30T21:46:45.848Z,99323.28
2022-10-30T21:49:16.503Z,99319.56
2022-10-30T21:51:48.667Z,99325.88
2022-10-30T21:54:18.297Z,99330.06
2022-10-30T21:56:47.944Z,99329.38
2022-10-30T21:59:17.011Z,99331.59
2022-10-30T22:01:46.596Z,99331.13
2022-10-30T22:04:15.571Z,99330.66
2022-10-30T22:06:46.678Z,99332.53
2022-10-30T22:09:18.651Z,99330.06
2022-10-30T22:11:47.343Z,99332.75
2022-10-30T22:14:15.898Z,99324.91
2022-10-30T22:16:45.285Z,99326.22
2022-10-30T22:19:13.959Z,99324.44
2022-10-30T22:21:42.668Z,99327.00
2022-10-30T22:24:13.788Z,99334.25
2022-10-30T22:26:42.386Z,99325.75
2022-10-30T22:29:11.051Z,99320.25
2022-10-30T22:31:39.692Z,99329.00
2022-10-30T22:34:08.304Z,99329.81
2022-10-30T22:36:37.016Z,99334.38
2022-10-30T22:39:09.910Z,99329.22
2022-10-30T22:41:41.025Z,99331.09
2022-10-30T22:44:15.123Z,99339.03
2022-10-30T22:46:43.798Z,99339.47
2022-10-30T22:49:12.389Z,99348.25
2022-10-30T22:51:41.470Z,99343.69
2022-10-30T22:54:13.366Z,99346.59
2022-10-30T22:56:43.990Z,99348.31
2022-10-30T22:59:14.864Z,99344.16
2022-10-30T23:01:44.289Z,99356.50
2022-10-30T23:04:16.130Z,99354.44
2022-10-30T23:06:46.036Z,99355.25
2022-10-30T23:09:19.603Z,99355.69
2022-10-30T23:11:50.328Z,99347.75
2022-10-30T23:14:19.084Z,99349.38
2022-10-30T23:16:47.852Z,99347.31
2022-10-30T23:19:16.544Z,99350.00
2022-10-30T23:21:45.238Z,99358.34
2022-10-30T23:24:15.805Z,99348.22
2022-10-30T23:26:44.417Z,99350.00
2022-10-30T23:29:14.491Z,99362.69
2022-10-30T23:31:44.045Z,99361.97
2022-10-30T23:34:17.102Z,99360.72
2022-10-30T23:36:46.400Z,99361.75
2022-10-30T23:39:18.254Z,99358.25
2022-10-30T23:41:47.369Z,99352.88
2022-10-30T23:44:18.015Z,99354.97
2022-10-30T23:46:46.763Z,99356.38
2022-10-30T23:49:15.445Z,99354.16
2022-10-30T23:51:44.045Z,99354.63
2022-10-30T23:54:12.882Z,99363.00
2022-10-30T23:56:42.599Z,99357.63
2022-10-30T23:59:11.703Z,99368.38
